Caribe Navigator — V2PW6 — position and weather

sailwx.info

Track history (hours):
 
Tides and Currents Weather Stations Pressure Air Temp Water Temp Dewpoint Dewpoint Depression Visibility Wind Speed Wind Dir Waves Ship Positions

Caribe Navigator

Last reported at 2015-Jan-23 00:32 UTC. Time now 2015-Jan-25 22:21 UTC.
Position N 25°34' W 080°02'.

Length 100 m; draft 5 m.

Type: Cargo ship. MMSI: 305289000.

Date/timePositionNaut miles runAvg speedWind from/ knotsBaromVisibWave heightAir tempDewpointWater temp
2015-Jan-23 00:32N 25°34' W 080°02'1111.4
2015-Jan-22 23:33N 25°45' W 080°02'1211.9
2015-Jan-22 22:33N 25°57' W 080°04'9 9.4
2015-Jan-22 21:33N 26°06' W 080°07'0 0.2
2015-Jan-22 20:23N 26°05' W 080°07'0 0.0
2015-Jan-22 19:23N 26°05' W 080°07'0 0.0
2015-Jan-22 18:23N 26°05' W 080°07'0 0.0
2015-Jan-22 17:26N 26°05' W 080°07'0 0.0
2015-Jan-22 16:26N 26°05' W 080°07'0 0.0
2015-Jan-22 15:26N 26°05' W 080°07'0 0.0
2015-Jan-22 14:26N 26°05' W 080°07'0 0.0
2015-Jan-22 13:26N 26°05' W 080°07'0 0.0
2015-Jan-22 12:29N 26°05' W 080°07'0 0.0
2015-Jan-22 11:29N 26°05' W 080°07'0 0.0
2015-Jan-22 10:29N 26°05' W 080°07'0 0.0
2015-Jan-22 09:29N 26°05' W 080°07'0 0.0
2015-Jan-22 08:29N 26°05' W 080°07'0 0.0
2015-Jan-22 07:31N 26°05' W 080°07'0 0.0
2015-Jan-22 06:31N 26°05' W 080°07'0 0.0
2015-Jan-22 05:31N 26°05' W 080°07'0 0.0
2015-Jan-22 04:31N 26°05' W 080°07'0 0.0
2015-Jan-22 03:31N 26°05' W 080°07'0 0.0
2015-Jan-22 02:31N 26°05' W 080°07'0 0.0
2015-Jan-22 01:31N 26°05' W 080°07'0 0.0
2015-Jan-22 00:31N 26°05' W 080°07'0 0.0
2015-Jan-21 23:31N 26°05' W 080°07'0 0.0
2015-Jan-21 22:49N 26°05' W 080°07'0 0.1
2015-Jan-21 22:46N 26°05' W 080°07'0 0.0
2015-Jan-21 22:31N 26°05' W 080°07'0 0.0
2015-Jan-21 21:31N 26°05' W 080°07'0 0.0
2015-Jan-21 20:31N 26°05' W 080°07'1 0.9
2015-Jan-21 19:34N 26°06' W 080°06'1212.5
2015-Jan-21 18:34N 25°55' W 079°59'  
2015-Jan-16 01:04N 25°35' W 080°02'510.3
2015-Jan-16 00:34N 25°40' W 080°02'1211.5
2015-Jan-15 23:33N 25°52' W 080°03'1312.8
2015-Jan-15 22:33N 26°04' W 080°05'2 2.2
2015-Jan-15 21:27N 26°05' W 080°07'0 0.0
2015-Jan-15 20:27N 26°05' W 080°07'0 0.0
2015-Jan-15 19:26N 26°05' W 080°07'0 0.0
2015-Jan-15 18:26N 26°05' W 080°07'0 0.0
2015-Jan-15 17:29N 26°05' W 080°07'0 0.0
2015-Jan-15 16:29N 26°05' W 080°07'0 0.0
2015-Jan-15 15:29N 26°05' W 080°07'0 0.0
2015-Jan-15 14:29N 26°05' W 080°07'0 0.0
2015-Jan-15 13:29N 26°05' W 080°07'0 0.0
2015-Jan-15 12:32N 26°05' W 080°07'0 0.0
2015-Jan-15 11:32N 26°05' W 080°07'0 0.0
2015-Jan-15 10:32N 26°05' W 080°07'3 3.0
2015-Jan-15 09:33N 26°05' W 080°04'5 4.9
2015-Jan-15 08:33N 26°00' W 080°01'1313.0
2015-Jan-15 07:33N 25°49' W 079°54'  
Track history (hours):
 
Tides and Currents Weather Stations Pressure Air Temp Water Temp Dewpoint Dewpoint Depression Visibility Wind Speed Wind Dir Waves Ship Positions

Caribe Navigator

Last reported at 2015-Jan-23 00:32 UTC. Time now 2015-Jan-25 22:21 UTC.
Position N 25°34' W 080°02'.

Length 100 m; draft 5 m.

Type: Cargo ship. MMSI: 305289000.

Date/timePositionNaut miles runAvg speedWind from/ knotsBaromVisibWave heightAir tempDewpointWater temp
2015-Jan-23 00:32N 25°34' W 080°02'1111.4
2015-Jan-22 23:33N 25°45' W 080°02'1211.9
2015-Jan-22 22:33N 25°57' W 080°04'9 9.4
2015-Jan-22 21:33N 26°06' W 080°07'0 0.2
2015-Jan-22 20:23N 26°05' W 080°07'0 0.0
2015-Jan-22 19:23N 26°05' W 080°07'0 0.0
2015-Jan-22 18:23N 26°05' W 080°07'0 0.0
2015-Jan-22 17:26N 26°05' W 080°07'0 0.0
2015-Jan-22 16:26N 26°05' W 080°07'0 0.0
2015-Jan-22 15:26N 26°05' W 080°07'0 0.0
2015-Jan-22 14:26N 26°05' W 080°07'0 0.0
2015-Jan-22 13:26N 26°05' W 080°07'0 0.0
2015-Jan-22 12:29N 26°05' W 080°07'0 0.0
2015-Jan-22 11:29N 26°05' W 080°07'0 0.0
2015-Jan-22 10:29N 26°05' W 080°07'0 0.0
2015-Jan-22 09:29N 26°05' W 080°07'0 0.0
2015-Jan-22 08:29N 26°05' W 080°07'0 0.0
2015-Jan-22 07:31N 26°05' W 080°07'0 0.0
2015-Jan-22 06:31N 26°05' W 080°07'0 0.0
2015-Jan-22 05:31N 26°05' W 080°07'0 0.0
2015-Jan-22 04:31N 26°05' W 080°07'0 0.0
2015-Jan-22 03:31N 26°05' W 080°07'0 0.0
2015-Jan-22 02:31N 26°05' W 080°07'0 0.0
2015-Jan-22 01:31N 26°05' W 080°07'0 0.0
2015-Jan-22 00:31N 26°05' W 080°07'0 0.0
2015-Jan-21 23:31N 26°05' W 080°07'0 0.0
2015-Jan-21 22:49N 26°05' W 080°07'0 0.1
2015-Jan-21 22:46N 26°05' W 080°07'0 0.0
2015-Jan-21 22:31N 26°05' W 080°07'0 0.0
2015-Jan-21 21:31N 26°05' W 080°07'0 0.0
2015-Jan-21 20:31N 26°05' W 080°07'1 0.9
2015-Jan-21 19:34N 26°06' W 080°06'1212.5
2015-Jan-21 18:34N 25°55' W 079°59'  
2015-Jan-16 01:04N 25°35' W 080°02'510.3
2015-Jan-16 00:34N 25°40' W 080°02'1211.5
2015-Jan-15 23:33N 25°52' W 080°03'1312.8
2015-Jan-15 22:33N 26°04' W 080°05'2 2.2
2015-Jan-15 21:27N 26°05' W 080°07'0 0.0
2015-Jan-15 20:27N 26°05' W 080°07'0 0.0
2015-Jan-15 19:26N 26°05' W 080°07'0 0.0
2015-Jan-15 18:26N 26°05' W 080°07'0 0.0
2015-Jan-15 17:29N 26°05' W 080°07'0 0.0
2015-Jan-15 16:29N 26°05' W 080°07'0 0.0
2015-Jan-15 15:29N 26°05' W 080°07'0 0.0
2015-Jan-15 14:29N 26°05' W 080°07'0 0.0
2015-Jan-15 13:29N 26°05' W 080°07'0 0.0
2015-Jan-15 12:32N 26°05' W 080°07'0 0.0
2015-Jan-15 11:32N 26°05' W 080°07'0 0.0
2015-Jan-15 10:32N 26°05' W 080°07'3 3.0
2015-Jan-15 09:33N 26°05' W 080°04'5 4.9
2015-Jan-15 08:33N 26°00' W 080°01'1313.0
2015-Jan-15 07:33N 25°49' W 079°54'  

Dump ship's entire track history